Time,TemperatureF,DewpointF,PressureIn,WindDirection,WindDirectionDegrees,WindSpeedMPH,WindSpeedGustMPH,Humidity,HourlyPrecipIn,Conditions,Clouds,dailyrainin,SolarRadiationWatts/m^2,SoftwareType,DateUTC
2013-06-28 00:01:00,64.0,61.0,-100.00,East,100,2.0,5.0,91,0.00,,,0.01,1.000000,,2013-06-28 07:01:00,
2013-06-28 00:33:00,63.0,61.0,-100.00,East,95,2.0,3.0,94,0.00,,,0.01,1.000000,,2013-06-28 07:33:00,
2013-06-28 00:43:00,63.0,61.0,-100.00,East,95,2.0,3.0,94,0.00,,,0.01,1.000000,,2013-06-28 07:43:00,
2013-06-28 00:52:00,63.0,61.0,-100.00,East,95,2.0,3.0,94,0.00,,,0.01,1.000000,,2013-06-28 07:52:00,
2013-06-28 01:01:00,63.0,61.0,-100.00,East,95,2.0,3.0,94,0.00,,,0.01,1.000000,,2013-06-28 08:01:00,
2013-06-28 01:33:00,62.0,61.0,-100.00,SE,129,0.0,0.0,95,0.00,,,0.01,1.000000,,2013-06-28 08:33:00,
2013-06-28 01:43:00,62.0,61.0,-100.00,SE,129,0.0,0.0,95,0.00,,,0.01,1.000000,,2013-06-28 08:43:00,
2013-06-28 01:52:00,62.0,61.0,-100.00,SE,129,0.0,0.0,95,0.00,,,0.01,1.000000,,2013-06-28 08:52:00,
2013-06-28 02:02:00,62.0,61.0,-100.00,SE,129,0.0,0.0,95,0.00,,,0.01,1.000000,,2013-06-28 09:02:00,
2013-06-28 02:33:00,62.0,61.0,-100.00,SSW,192,0.0,2.0,96,0.00,,,-99.99,1.000000,,2013-06-28 09:33:00,
2013-06-28 02:42:00,62.0,61.0,-100.00,SSW,192,0.0,2.0,96,0.00,,,-99.99,1.000000,,2013-06-28 09:42:00,
2013-06-28 02:52:00,62.0,61.0,-100.00,SSW,192,0.0,2.0,96,0.00,,,-99.99,1.000000,,2013-06-28 09:52:00,
2013-06-28 03:02:00,62.0,61.0,-100.00,SSW,192,0.0,2.0,96,0.00,,,-99.99,1.000000,,2013-06-28 10:02:00,
2013-06-28 03:33:00,61.0,60.0,-100.00,SW,214,0.0,3.0,97,0.00,,,0.01,1.000000,,2013-06-28 10:33:00,
2013-06-28 03:42:00,61.0,60.0,-100.00,SW,214,0.0,3.0,97,0.00,,,0.01,1.000000,,2013-06-28 10:42:00,
2013-06-28 03:52:00,61.0,60.0,-100.00,SW,214,0.0,3.0,97,0.00,,,0.01,1.000000,,2013-06-28 10:52:00,
2013-06-28 04:01:00,61.0,60.0,-100.00,SW,214,0.0,3.0,97,0.00,,,0.01,1.000000,,2013-06-28 11:01:00,
2013-06-28 04:34:00,61.0,60.0,-100.00,SSE,152,2.0,3.0,96,0.00,,,0.01,1.000000,,2013-06-28 11:34:00,
2013-06-28 04:43:00,61.0,60.0,-100.00,SSE,152,2.0,3.0,96,0.00,,,0.01,1.000000,,2013-06-28 11:43:00,
2013-06-28 04:53:00,61.0,60.0,-100.00,SSE,152,2.0,3.0,96,0.00,,,0.01,1.000000,,2013-06-28 11:53:00,
2013-06-28 05:01:00,61.0,60.0,-100.00,SSE,152,2.0,3.0,96,0.00,,,0.01,1.000000,,2013-06-28 12:01:00,
2013-06-28 05:34:00,60.0,59.0,-100.00,SW,227,2.0,4.0,96,0.00,,,0.01,1.000000,,2013-06-28 12:34:00,
2013-06-28 05:43:00,60.0,59.0,-100.00,SW,227,2.0,4.0,96,0.00,,,0.01,1.000000,,2013-06-28 12:43:00,
2013-06-28 05:52:00,60.0,59.0,-100.00,SW,227,2.0,4.0,96,0.00,,,0.01,1.000000,,2013-06-28 12:52:00,
2013-06-28 06:01:00,60.0,59.0,-100.00,SW,227,2.0,4.0,96,0.00,,,0.01,1.000000,,2013-06-28 13:01:00,
2013-06-28 06:43:00,62.0,60.0,-100.00,SSW,212,1.0,5.0,94,0.00,,,0.01,19.000000,,2013-06-28 13:43:00,
2013-06-28 06:53:00,62.0,60.0,-100.00,SSW,212,1.0,5.0,94,0.00,,,0.01,19.000000,,2013-06-28 13:53:00,
2013-06-28 07:01:00,62.0,60.0,-100.00,SSW,212,1.0,5.0,94,0.00,,,0.01,19.000000,,2013-06-28 14:01:00,
2013-06-28 07:33:00,67.0,61.0,-100.00,ESE,119,1.0,4.0,82,0.00,,,0.01,101.000000,,2013-06-28 14:33:00,
2013-06-28 07:44:00,67.0,61.0,-100.00,ESE,119,1.0,4.0,82,0.00,,,0.01,101.000000,,2013-06-28 14:44:00,
2013-06-28 07:53:00,67.0,61.0,-100.00,ESE,119,1.0,4.0,82,0.00,,,0.01,101.000000,,2013-06-28 14:53:00,
2013-06-28 08:02:00,67.0,61.0,-100.00,ESE,119,1.0,4.0,82,0.00,,,0.01,101.000000,,2013-06-28 15:02:00,
2013-06-28 08:34:00,71.0,61.0,-100.00,SW,221,2.0,7.0,71,0.00,,,0.00,201.000000,,2013-06-28 15:34:00,
2013-06-28 08:43:00,71.0,61.0,-100.00,SW,221,2.0,7.0,71,0.00,,,0.00,201.000000,,2013-06-28 15:43:00,
2013-06-28 08:52:00,71.0,61.0,-100.00,SW,221,2.0,7.0,71,0.00,,,0.00,201.000000,,2013-06-28 15:52:00,
2013-06-28 09:01:00,71.0,61.0,-100.00,SW,221,2.0,7.0,71,0.00,,,0.00,201.000000,,2013-06-28 16:01:00,
2013-06-28 09:53:00,75.0,60.0,-100.00,WSW,252,3.0,7.0,60,0.00,,,0.00,456.000000,,2013-06-28 16:53:00,
2013-06-28 10:02:00,75.0,60.0,-100.00,WSW,252,3.0,7.0,60,0.00,,,0.00,456.000000,,2013-06-28 17:02:00,
2013-06-28 10:44:00,80.0,61.0,-100.00,SW,216,3.0,8.0,52,0.00,,,0.00,612.000000,,2013-06-28 17:44:00,
2013-06-28 10:52:00,80.0,61.0,-100.00,SW,216,3.0,8.0,52,0.00,,,0.00,612.000000,,2013-06-28 17:52:00,
2013-06-28 11:01:00,80.0,61.0,-100.00,SW,216,3.0,8.0,52,0.00,,,0.00,612.000000,,2013-06-28 18:01:00,
2013-06-28 11:43:00,85.0,57.0,-100.00,SW,226,4.0,6.0,39,0.00,,,0.00,734.000000,,2013-06-28 18:43:00,
2013-06-28 11:52:00,85.0,57.0,-100.00,SW,226,4.0,6.0,39,0.00,,,0.00,734.000000,,2013-06-28 18:52:00,
2013-06-28 12:01:00,85.0,57.0,-100.00,SW,226,4.0,6.0,39,0.00,,,0.00,734.000000,,2013-06-28 19:01:00,
2013-06-28 12:33:00,88.0,60.0,-100.00,ENE,59,5.0,12.0,39,0.00,,,0.00,832.000000,,2013-06-28 19:33:00,
2013-06-28 12:43:00,88.0,60.0,-100.00,ENE,59,5.0,12.0,39,0.00,,,0.00,832.000000,,2013-06-28 19:43:00,
2013-06-28 12:53:00,88.0,60.0,-100.00,ENE,59,5.0,12.0,39,0.00,,,0.00,832.000000,,2013-06-28 19:53:00,
2013-06-28 13:02:00,88.0,60.0,-100.00,ENE,59,5.0,12.0,39,0.00,,,0.00,832.000000,,2013-06-28 20:02:00,
2013-06-28 13:33:00,91.0,60.0,-100.00,NNE,26,4.0,11.0,36,0.00,,,0.00,877.000000,,2013-06-28 20:33:00,
2013-06-28 13:43:00,91.0,60.0,-100.00,NNE,26,4.0,11.0,36,0.00,,,0.00,877.000000,,2013-06-28 20:43:00,
2013-06-28 13:52:00,91.0,60.0,-100.00,NNE,26,4.0,11.0,36,0.00,,,0.00,877.000000,,2013-06-28 20:52:00,
2013-06-28 14:01:00,91.0,60.0,-100.00,NNE,26,4.0,11.0,36,0.00,,,0.00,877.000000,,2013-06-28 21:01:00,
2013-06-28 14:34:00,92.0,60.0,-100.00,NE,34,4.0,10.0,35,0.00,,,0.00,699.000000,,2013-06-28 21:34:00,
2013-06-28 14:43:00,92.0,60.0,-100.00,NE,34,4.0,10.0,35,0.00,,,0.00,699.000000,,2013-06-28 21:43:00,
2013-06-28 14:53:00,92.0,60.0,-100.00,NE,34,4.0,10.0,35,0.00,,,0.00,699.000000,,2013-06-28 21:53:00,
2013-06-28 15:01:00,92.0,60.0,-100.00,NE,34,4.0,10.0,35,0.00,,,0.00,699.000000,,2013-06-28 22:01:00,
2013-06-28 15:34:00,89.0,64.0,-100.00,SW,221,7.0,12.0,43,0.00,,,0.00,820.000000,,2013-06-28 22:34:00,
2013-06-28 15:43:00,89.0,64.0,-100.00,SW,221,7.0,12.0,43,0.00,,,0.00,820.000000,,2013-06-28 22:43:00,
2013-06-28 15:52:00,89.0,64.0,-100.00,SW,221,7.0,12.0,43,0.00,,,0.00,820.000000,,2013-06-28 22:52:00,
2013-06-28 16:01:00,89.0,64.0,-100.00,SW,221,7.0,12.0,43,0.00,,,0.00,820.000000,,2013-06-28 23:01:00,
2013-06-28 16:34:00,90.0,63.0,-100.00,SW,218,7.0,14.0,41,0.00,,,0.00,723.000000,,2013-06-28 23:34:00,
2013-06-28 16:43:00,90.0,63.0,-100.00,SW,218,7.0,14.0,41,0.00,,,0.00,723.000000,,2013-06-28 23:43:00,
2013-06-28 16:53:00,90.0,63.0,-100.00,SW,218,7.0,14.0,41,0.00,,,0.00,723.000000,,2013-06-28 23:53:00,
2013-06-28 17:01:00,90.0,63.0,-100.00,SW,218,7.0,14.0,41,0.00,,,0.00,723.000000,,2013-06-29 00:01:00,
2013-06-28 17:33:00,91.0,59.0,-100.00,WSW,245,7.0,15.0,34,0.00,,,-99.99,587.000000,,2013-06-29 00:33:00,
2013-06-28 17:42:00,91.0,59.0,-100.00,WSW,245,7.0,15.0,34,0.00,,,-99.99,587.000000,,2013-06-29 00:42:00,
2013-06-28 17:52:00,91.0,59.0,-100.00,WSW,245,7.0,15.0,34,0.00,,,-99.99,587.000000,,2013-06-29 00:52:00,
2013-06-28 18:01:00,91.0,59.0,-100.00,WSW,245,7.0,15.0,34,0.00,,,-99.99,587.000000,,2013-06-29 01:01:00,
2013-06-28 18:32:00,90.0,63.0,-100.00,SW,233,6.0,16.0,41,0.00,,,-99.99,445.000000,,2013-06-29 01:32:00,
2013-06-28 18:42:00,90.0,63.0,-100.00,SW,233,6.0,16.0,41,0.00,,,-99.99,445.000000,,2013-06-29 01:42:00,
2013-06-28 18:51:00,90.0,63.0,-100.00,SW,233,6.0,16.0,41,0.00,,,-99.99,445.000000,,2013-06-29 01:51:00,
2013-06-28 19:01:00,90.0,63.0,-100.00,SW,233,6.0,16.0,41,0.00,,,-99.99,445.000000,,2013-06-29 02:01:00,
2013-06-28 19:31:00,88.0,62.0,-100.00,SW,220,5.0,12.0,42,0.00,,,0.00,281.000000,,2013-06-29 02:31:00,
2013-06-28 19:41:00,88.0,62.0,-100.00,SW,220,5.0,12.0,42,0.00,,,0.00,281.000000,,2013-06-29 02:41:00,
2013-06-28 19:51:00,88.0,62.0,-100.00,SW,220,5.0,12.0,42,0.00,,,0.00,281.000000,,2013-06-29 02:51:00,
2013-06-28 20:00:00,88.0,62.0,-100.00,SW,220,5.0,12.0,42,0.00,,,0.00,281.000000,,2013-06-29 03:00:00,
2013-06-28 20:32:00,80.0,66.0,-100.00,South,187,3.0,10.0,63,0.00,,,0.00,97.000000,,2013-06-29 03:32:00,
2013-06-28 20:41:00,80.0,66.0,-100.00,South,187,3.0,10.0,63,0.00,,,0.00,97.000000,,2013-06-29 03:41:00,
2013-06-28 20:51:00,80.0,66.0,-100.00,South,187,3.0,10.0,63,0.00,,,0.00,97.000000,,2013-06-29 03:51:00,
2013-06-28 21:01:00,80.0,66.0,-100.00,South,187,3.0,10.0,63,0.00,,,0.00,97.000000,,2013-06-29 04:01:00,
2013-06-28 21:32:00,76.0,67.0,-100.00,South,189,2.0,6.0,73,0.00,,,0.00,16.000000,,2013-06-29 04:32:00,
2013-06-28 21:41:00,76.0,67.0,-100.00,South,189,2.0,6.0,73,0.00,,,0.00,16.000000,,2013-06-29 04:41:00,
2013-06-28 21:51:00,76.0,67.0,-100.00,South,189,2.0,6.0,73,0.00,,,0.00,16.000000,,2013-06-29 04:51:00,
2013-06-28 22:01:00,76.0,67.0,-100.00,South,189,2.0,6.0,73,0.00,,,0.00,16.000000,,2013-06-29 05:01:00,
2013-06-28 22:31:00,77.0,64.0,-100.00,SW,223,3.0,7.0,64,0.00,,,0.00,1.000000,,2013-06-29 05:31:00,
2013-06-28 22:41:00,77.0,64.0,-100.00,SW,223,3.0,7.0,64,0.00,,,0.00,1.000000,,2013-06-29 05:41:00,
2013-06-28 22:51:00,77.0,64.0,-100.00,SW,223,3.0,7.0,64,0.00,,,0.00,1.000000,,2013-06-29 05:51:00,
2013-06-28 23:01:00,77.0,64.0,-100.00,SW,223,3.0,7.0,64,0.00,,,0.00,1.000000,,2013-06-29 06:01:00,
2013-06-28 23:34:00,76.0,63.0,-100.00,WSW,253,4.0,9.0,65,0.00,,,0.00,1.000000,,2013-06-29 06:34:00,
2013-06-28 23:43:00,76.0,63.0,-100.00,WSW,253,4.0,9.0,65,0.00,,,0.00,1.000000,,2013-06-29 06:43:00,
2013-06-28 23:53:00,76.0,63.0,-100.00,WSW,253,4.0,9.0,65,0.00,,,0.00,1.000000,,2013-06-29 06:53:00,